createdAt,value
2024-05-09T00:00:22.058Z,5.32
2024-05-09T00:02:53.136Z,5.53
2024-05-09T00:05:19.985Z,6.13
2024-05-09T00:07:46.745Z,6.75
2024-05-09T00:10:22.344Z,5.78
2024-05-09T00:12:55.776Z,5.25
2024-05-09T00:15:22.465Z,5.55
2024-05-09T00:17:49.457Z,5.88
2024-05-09T00:20:20.643Z,5.85
2024-05-09T00:22:54.555Z,6.20
2024-05-09T00:25:21.242Z,6.20
2024-05-09T00:27:47.880Z,6.40
2024-05-09T00:30:21.469Z,6.30
2024-05-09T00:32:55.251Z,5.93
2024-05-09T00:35:22.215Z,5.63
2024-05-09T00:37:48.999Z,5.38
2024-05-09T00:40:22.974Z,5.75
2024-05-09T00:42:57.828Z,5.60
2024-05-09T00:45:24.452Z,6.05
2024-05-09T00:47:51.408Z,5.80
2024-05-09T00:50:22.869Z,6.18
2024-05-09T00:52:56.796Z,5.70
2024-05-09T00:55:24.152Z,5.65
2024-05-09T00:57:51.486Z,5.45
2024-05-09T01:00:26.715Z,5.35
2024-05-09T01:02:59.129Z,4.88
2024-05-09T01:05:25.911Z,6.07
2024-05-09T01:07:52.601Z,6.30
2024-05-09T01:10:27.579Z,5.85
2024-05-09T01:12:59.088Z,5.53
2024-05-09T01:15:25.743Z,6.40
2024-05-09T01:17:55.714Z,6.40
2024-05-09T01:20:31.832Z,5.53
2024-05-09T01:23:07.688Z,5.70
2024-05-09T01:25:35.443Z,6.22
2024-05-09T01:28:02.200Z,5.57
2024-05-09T01:30:34.614Z,5.03
2024-05-09T01:33:04.693Z,5.97
2024-05-09T01:35:32.420Z,6.38
2024-05-09T01:37:59.231Z,4.63
2024-05-09T01:40:36.139Z,5.63
2024-05-09T01:43:05.879Z,6.45
2024-05-09T01:45:33.068Z,6.07
2024-05-09T01:48:00.124Z,5.55
2024-05-09T01:50:36.915Z,5.40
2024-05-09T01:53:07.303Z,6.25
2024-05-09T01:55:34.023Z,5.57
2024-05-09T01:58:00.700Z,5.45
2024-05-09T02:00:37.801Z,5.43
2024-05-09T02:03:15.005Z,5.20
2024-05-09T02:05:47.569Z,5.28
2024-05-09T02:08:21.714Z,5.43
2024-05-09T02:10:49.862Z,4.80
2024-05-09T02:13:17.169Z,5.13
2024-05-09T02:15:44.184Z,5.00
2024-05-09T02:18:11.565Z,5.45
2024-05-09T02:20:40.742Z,4.72
2024-05-09T02:23:08.607Z,5.05
2024-05-09T02:25:35.611Z,4.57
2024-05-09T02:28:02.314Z,4.43
2024-05-09T02:30:38.274Z,4.88
2024-05-09T02:33:09.259Z,5.28
2024-05-09T02:35:37.145Z,5.32
2024-05-09T02:38:04.543Z,4.78
2024-05-09T02:40:37.508Z,4.93
2024-05-09T02:43:07.300Z,6.25
2024-05-09T02:45:34.303Z,8.98
2024-05-09T02:48:01.946Z,8.23
2024-05-09T02:50:37.138Z,6.15
2024-05-09T02:53:10.044Z,6.97
2024-05-09T02:55:40.877Z,8.02
2024-05-09T02:58:08.256Z,8.32
2024-05-09T03:00:39.435Z,9.40
2024-05-09T03:03:10.781Z,9.00
2024-05-09T03:05:40.078Z,8.95
2024-05-09T03:08:07.972Z,8.48
2024-05-09T03:10:37.035Z,7.35
2024-05-09T03:13:09.323Z,7.38
2024-05-09T03:15:36.399Z,6.50
2024-05-09T03:18:04.712Z,6.82
2024-05-09T03:20:34.924Z,5.93
2024-05-09T03:23:04.081Z,6.07
2024-05-09T03:25:31.007Z,6.45
2024-05-09T03:27:57.664Z,5.93
2024-05-09T03:30:36.661Z,5.82
2024-05-09T03:33:17.687Z,6.18
2024-05-09T03:35:46.071Z,5.47
2024-05-09T03:38:13.026Z,5.38
2024-05-09T03:40:46.948Z,5.82
2024-05-09T03:43:14.453Z,6.18
2024-05-09T03:45:42.492Z,5.63
2024-05-09T03:48:09.408Z,5.53
2024-05-09T03:50:37.131Z,5.38
2024-05-09T03:53:04.708Z,6.78
2024-05-09T03:55:31.606Z,6.10
2024-05-09T03:57:58.509Z,6.82
2024-05-09T04:00:31.220Z,6.32
2024-05-09T04:03:06.250Z,6.10
2024-05-09T04:05:34.991Z,5.55
2024-05-09T04:08:01.994Z,6.38
2024-05-09T04:10:33.498Z,6.78
2024-05-09T04:13:01.869Z,6.60
2024-05-09T04:15:28.766Z,5.85
2024-05-09T04:17:55.977Z,7.05
2024-05-09T04:20:33.335Z,6.60
2024-05-09T04:23:06.193Z,6.45
2024-05-09T04:25:33.318Z,6.13
2024-05-09T04:28:00.043Z,6.57
2024-05-09T04:30:36.002Z,7.13
2024-05-09T04:33:07.764Z,8.32
2024-05-09T04:35:36.064Z,7.30
2024-05-09T04:38:03.590Z,7.82
2024-05-09T04:40:34.317Z,8.35
2024-05-09T04:43:07.179Z,9.68
2024-05-09T04:45:34.305Z,9.30
2024-05-09T04:48:01.787Z,9.55
2024-05-09T04:50:35.648Z,9.52
2024-05-09T04:53:06.367Z,10.45
2024-05-09T04:55:33.900Z,11.10
2024-05-09T04:58:01.135Z,10.65
2024-05-09T05:00:35.574Z,13.10
2024-05-09T05:03:07.364Z,11.55
2024-05-09T05:05:40.206Z,12.40
2024-05-09T05:08:17.740Z,11.23
2024-05-09T05:10:46.111Z,11.75
2024-05-09T05:13:18.491Z,11.65
2024-05-09T05:15:46.793Z,11.55
2024-05-09T05:18:15.448Z,11.68
2024-05-09T05:20:43.065Z,10.88
2024-05-09T05:23:18.778Z,10.35
2024-05-09T05:25:48.088Z,9.10
2024-05-09T05:28:18.008Z,7.68
2024-05-09T05:30:45.715Z,6.70
2024-05-09T05:33:15.266Z,6.82
2024-05-09T05:35:42.482Z,6.95
2024-05-09T05:38:10.784Z,6.30
2024-05-09T05:40:38.940Z,6.10
2024-05-09T05:43:11.037Z,5.05
2024-05-09T05:45:38.595Z,5.72
2024-05-09T05:48:07.016Z,6.53
2024-05-09T05:50:37.281Z,5.95
2024-05-09T05:53:09.975Z,6.15
2024-05-09T05:55:39.191Z,5.30
2024-05-09T05:58:09.216Z,6.45
2024-05-09T06:00:39.034Z,5.55
2024-05-09T06:03:07.907Z,5.78
2024-05-09T06:05:36.961Z,5.38
2024-05-09T06:08:04.212Z,5.32
2024-05-09T06:10:37.831Z,5.78
2024-05-09T06:13:07.409Z,5.38
2024-05-09T06:15:34.358Z,5.28
2024-05-09T06:18:01.679Z,5.68
2024-05-09T06:20:35.555Z,5.18
2024-05-09T06:23:08.453Z,6.18
2024-05-09T06:25:36.331Z,6.30
2024-05-09T06:28:03.294Z,5.97
2024-05-09T06:30:37.535Z,5.68
2024-05-09T06:33:08.860Z,6.10
2024-05-09T06:35:37.216Z,6.78
2024-05-09T06:38:04.707Z,6.70
2024-05-09T06:40:37.804Z,5.78
2024-05-09T06:43:18.310Z,5.40
2024-05-09T06:45:48.255Z,7.03
2024-05-09T06:48:19.184Z,6.43
2024-05-09T06:50:46.678Z,6.43
2024-05-09T06:53:14.788Z,6.65
2024-05-09T06:55:41.621Z,6.57
2024-05-09T06:58:09.285Z,6.65
2024-05-09T07:00:39.752Z,6.88
2024-05-09T07:03:13.990Z,6.45
2024-05-09T07:05:43.383Z,6.22
2024-05-09T07:08:10.417Z,6.25
2024-05-09T07:10:37.685Z,7.28
2024-05-09T07:13:12.561Z,6.50
2024-05-09T07:15:40.664Z,6.90
2024-05-09T07:18:18.743Z,7.13
2024-05-09T07:20:47.619Z,6.22
2024-05-09T07:23:15.534Z,6.40
2024-05-09T07:25:43.146Z,6.22
2024-05-09T07:28:14.276Z,6.28
2024-05-09T07:30:41.725Z,6.80
2024-05-09T07:33:08.821Z,6.88
2024-05-09T07:35:35.913Z,6.63
2024-05-09T07:38:02.764Z,6.35
2024-05-09T07:40:35.765Z,8.57
2024-05-09T07:43:13.237Z,7.05
2024-05-09T07:45:49.904Z,6.78
2024-05-09T07:53:39.013Z,6.68
2024-05-09T07:56:09.371Z,5.70
2024-05-09T07:58:37.024Z,5.80
2024-05-09T08:01:03.955Z,6.55
2024-05-09T08:03:31.451Z,5.80
2024-05-09T08:05:58.175Z,6.55
2024-05-09T08:08:25.539Z,5.60
2024-05-09T08:10:52.285Z,6.53
2024-05-09T08:13:19.061Z,5.72
2024-05-09T08:15:45.916Z,6.47
2024-05-09T08:18:12.810Z,5.68
2024-05-09T08:20:41.175Z,5.78
2024-05-09T08:23:08.201Z,5.95
2024-05-09T08:25:34.838Z,5.22
2024-05-09T08:28:03.618Z,5.30
2024-05-09T08:30:36.348Z,5.25
2024-05-09T08:33:06.292Z,4.63
2024-05-09T08:35:34.553Z,5.68
2024-05-09T08:38:03.055Z,4.90
2024-05-09T08:40:35.645Z,5.05
2024-05-09T08:43:10.078Z,4.43
2024-05-09T08:45:42.630Z,4.72
2024-05-09T08:48:12.882Z,4.65
2024-05-09T08:50:41.446Z,4.47
2024-05-09T08:53:09.032Z,4.60
2024-05-09T08:55:40.516Z,4.95
2024-05-09T08:58:14.274Z,5.43
2024-05-09T09:00:43.119Z,4.78
2024-05-09T09:03:15.145Z,5.68
2024-05-09T09:05:51.581Z,4.72
2024-05-09T09:08:18.780Z,5.25
2024-05-09T09:10:47.668Z,4.68
2024-05-09T09:13:23.856Z,4.15
2024-05-09T09:15:50.920Z,4.35
2024-05-09T09:18:18.711Z,4.32
2024-05-09T09:20:45.849Z,4.40
2024-05-09T09:23:12.613Z,4.57
2024-05-09T09:25:40.516Z,5.10
2024-05-09T09:28:08.352Z,4.82
2024-05-09T09:30:38.883Z,4.70
2024-05-09T09:33:06.863Z,4.43
2024-05-09T09:35:35.856Z,4.57
2024-05-09T09:38:04.435Z,4.43
2024-05-09T09:40:37.207Z,4.13
2024-05-09T09:43:14.862Z,4.32
2024-05-09T09:45:44.167Z,4.28
2024-05-09T09:48:13.741Z,3.85
2024-05-09T09:50:42.178Z,3.97
2024-05-09T09:53:09.983Z,3.88
2024-05-09T09:55:37.580Z,3.25
2024-05-09T09:58:06.401Z,3.47
2024-05-09T10:00:34.539Z,3.92
2024-05-09T10:03:02.268Z,3.40
2024-05-09T10:05:30.156Z,3.30
2024-05-09T10:07:58.550Z,3.05
2024-05-09T10:10:32.164Z,2.85
2024-05-09T10:13:09.031Z,2.80
2024-05-09T10:15:52.635Z,2.78
2024-05-09T10:18:28.199Z,3.20
2024-05-09T10:20:57.469Z,2.75
2024-05-09T10:23:29.090Z,2.65
2024-05-09T10:26:04.317Z,2.95
2024-05-09T10:28:32.900Z,2.25
2024-05-09T10:31:11.136Z,2.53
2024-05-09T10:33:50.325Z,3.00
2024-05-09T10:36:23.007Z,2.47
2024-05-09T10:38:51.530Z,2.17
2024-05-09T10:41:20.523Z,2.85
2024-05-09T10:43:47.845Z,3.00
2024-05-09T10:46:15.227Z,2.30
2024-05-09T10:48:44.304Z,3.38
2024-05-09T10:51:11.764Z,2.63
2024-05-09T10:53:45.918Z,1.77
2024-05-09T10:58:42.204Z,2.17
2024-05-09T11:01:09.991Z,2.47
2024-05-09T11:03:37.890Z,2.80
2024-05-09T11:06:06.775Z,2.15
2024-05-09T11:08:35.952Z,1.88
2024-05-09T11:11:06.755Z,2.00
2024-05-09T11:13:36.974Z,1.75
2024-05-09T11:16:06.628Z,1.48
2024-05-09T11:18:37.920Z,1.92
2024-05-09T11:21:12.290Z,1.20
2024-05-09T11:23:39.297Z,1.50
2024-05-09T11:26:07.237Z,1.05
2024-05-09T11:28:33.966Z,1.42
2024-05-09T11:31:09.461Z,1.50
2024-05-09T11:33:38.953Z,2.15
2024-05-09T11:36:07.600Z,1.70
2024-05-09T11:38:34.559Z,1.35
2024-05-09T11:41:02.651Z,1.50
2024-05-09T11:43:29.449Z,1.30
2024-05-09T11:45:59.341Z,1.38
2024-05-09T11:48:26.786Z,1.13
2024-05-09T11:50:55.545Z,1.30
2024-05-09T11:53:22.465Z,1.13
2024-05-09T11:55:49.225Z,1.40
2024-05-09T11:58:18.104Z,1.30
2024-05-09T12:00:46.117Z,1.10
2024-05-09T12:03:13.063Z,1.10
2024-05-09T12:05:39.862Z,1.10
2024-05-09T12:08:07.280Z,1.30
2024-05-09T12:10:36.126Z,1.23
2024-05-09T12:13:06.183Z,0.90
2024-05-09T12:15:37.435Z,0.93
2024-05-09T12:18:05.910Z,1.00
2024-05-09T12:20:37.534Z,1.38
2024-05-09T12:23:06.949Z,1.10
2024-05-09T12:25:34.914Z,1.25
2024-05-09T12:28:01.943Z,0.98
2024-05-09T12:30:36.149Z,1.00
2024-05-09T12:33:08.400Z,0.80
2024-05-09T12:35:35.535Z,0.90
2024-05-09T12:38:02.530Z,0.80
2024-05-09T12:40:35.832Z,1.08
2024-05-09T12:43:09.154Z,1.30
2024-05-09T12:45:37.503Z,1.10
2024-05-09T12:48:07.446Z,1.23
2024-05-09T12:50:35.077Z,1.17
2024-05-09T12:53:03.159Z,1.10
2024-05-09T12:55:37.313Z,1.10
2024-05-09T12:58:12.029Z,1.00
2024-05-09T13:00:39.228Z,1.10
2024-05-09T13:03:06.349Z,1.42
2024-05-09T13:05:33.380Z,1.52
2024-05-09T13:08:00.981Z,1.25
2024-05-09T13:10:32.150Z,1.20
2024-05-09T13:13:01.523Z,1.42
2024-05-09T13:15:30.244Z,1.15
2024-05-09T13:18:00.451Z,1.20
2024-05-09T13:20:33.553Z,1.10
2024-05-09T13:23:07.297Z,1.25
2024-05-09T13:25:35.291Z,1.00
2024-05-09T13:28:02.987Z,1.40
2024-05-09T13:30:38.501Z,1.00
2024-05-09T13:33:08.982Z,1.17
2024-05-09T13:35:36.278Z,1.30
2024-05-09T13:38:04.165Z,1.00
2024-05-09T13:40:34.520Z,1.40
2024-05-09T13:43:06.653Z,1.10
2024-05-09T13:45:34.382Z,1.23
2024-05-09T13:48:02.552Z,1.00
2024-05-09T13:50:35.739Z,1.23
2024-05-09T13:55:33.592Z,1.13
2024-05-09T13:58:00.903Z,1.17
2024-05-09T14:00:41.328Z,0.75
2024-05-09T14:03:14.582Z,1.00
2024-05-09T14:05:41.841Z,1.15
2024-05-09T14:08:08.948Z,1.10
2024-05-09T14:10:35.959Z,1.00
2024-05-09T14:13:02.934Z,1.10
2024-05-09T14:15:29.682Z,0.88
2024-05-09T14:17:56.517Z,1.00
2024-05-09T14:20:30.412Z,1.75
2024-05-09T14:22:59.787Z,1.05
2024-05-09T14:25:31.921Z,1.20
2024-05-09T14:27:59.012Z,1.55
2024-05-09T14:30:34.504Z,1.02
2024-05-09T14:33:05.727Z,1.23
2024-05-09T14:35:33.189Z,1.00
2024-05-09T14:38:00.050Z,1.10
2024-05-09T14:40:37.162Z,1.20
2024-05-09T14:43:08.609Z,1.10
2024-05-09T14:45:35.745Z,1.27
2024-05-09T14:48:03.350Z,1.63
2024-05-09T14:50:36.054Z,1.67
2024-05-09T14:53:07.189Z,1.10
2024-05-09T14:55:39.267Z,1.42
2024-05-09T14:58:07.502Z,1.08
2024-05-09T15:00:46.094Z,1.33
2024-05-09T15:03:17.066Z,1.23
2024-05-09T15:05:44.959Z,1.05
2024-05-09T15:08:11.693Z,1.00
2024-05-09T15:10:39.081Z,1.10
2024-05-09T15:13:08.091Z,0.95
2024-05-09T15:15:36.824Z,1.10
2024-05-09T15:18:07.157Z,0.80
2024-05-09T15:20:36.737Z,0.80
2024-05-09T15:23:06.540Z,0.80
2024-05-09T15:25:36.648Z,0.73
2024-05-09T15:28:04.651Z,0.70
2024-05-09T15:30:33.588Z,0.63
2024-05-09T15:33:05.337Z,0.60
2024-05-09T15:35:33.511Z,0.70
2024-05-09T15:38:02.772Z,0.90
2024-05-09T15:40:37.229Z,0.80
2024-05-09T15:43:07.920Z,1.02
2024-05-09T15:45:35.655Z,0.70
2024-05-09T15:48:03.333Z,0.85
2024-05-09T15:50:37.204Z,0.70
2024-05-09T15:53:08.726Z,0.70
2024-05-09T15:55:36.342Z,0.73
2024-05-09T15:58:04.204Z,0.60
2024-05-09T16:03:01.281Z,0.60
2024-05-09T16:05:28.142Z,0.70
2024-05-09T16:07:55.188Z,0.60
2024-05-09T16:10:26.059Z,0.80
2024-05-09T16:12:59.208Z,0.95
2024-05-09T16:15:26.087Z,0.93
2024-05-09T16:17:53.463Z,0.70
2024-05-09T16:20:33.227Z,0.80
2024-05-09T16:23:05.189Z,1.15
2024-05-09T16:25:31.840Z,0.70
2024-05-09T16:27:58.589Z,0.80
2024-05-09T16:30:32.012Z,0.73
2024-05-09T16:33:02.828Z,0.60
2024-05-09T16:35:29.738Z,0.80
2024-05-09T16:37:56.446Z,0.70
2024-05-09T16:40:30.343Z,0.60
2024-05-09T16:43:04.428Z,0.57
2024-05-09T16:45:31.628Z,0.60
2024-05-09T16:47:59.721Z,0.60
2024-05-09T16:50:32.317Z,0.60
2024-05-09T16:53:01.223Z,0.80
2024-05-09T16:55:28.023Z,0.80
2024-05-09T16:57:56.314Z,0.60
2024-05-09T17:00:34.815Z,0.80
2024-05-09T17:03:07.635Z,0.77
2024-05-09T17:05:35.389Z,0.80
2024-05-09T17:08:02.792Z,0.60
2024-05-09T17:10:33.337Z,0.90
2024-05-09T17:13:06.479Z,0.60
2024-05-09T17:15:50.081Z,0.57
2024-05-09T17:18:17.133Z,0.75
2024-05-09T17:20:43.824Z,0.70
2024-05-09T17:23:13.978Z,0.60
2024-05-09T17:25:41.564Z,0.68
2024-05-09T17:28:09.550Z,0.52
2024-05-09T17:30:38.473Z,0.52
2024-05-09T17:33:08.783Z,0.60
2024-05-09T17:35:36.485Z,0.57
2024-05-09T17:38:04.282Z,1.17
2024-05-09T17:40:34.925Z,0.88
2024-05-09T17:43:05.039Z,0.70
2024-05-09T17:45:32.632Z,0.88
2024-05-09T17:48:00.088Z,0.60
2024-05-09T17:50:35.127Z,0.60
2024-05-09T17:53:04.362Z,0.80
2024-05-09T17:55:31.164Z,0.70
2024-05-09T17:57:58.222Z,0.65
2024-05-09T18:00:36.371Z,0.50
2024-05-09T18:03:07.043Z,0.73
2024-05-09T18:05:35.967Z,0.80
2024-05-09T18:08:03.598Z,1.92
2024-05-09T18:10:36.325Z,2.90
2024-05-09T18:13:06.333Z,1.20
2024-05-09T18:15:33.667Z,0.57
2024-05-09T18:18:01.588Z,0.60
2024-05-09T18:20:37.839Z,0.70
2024-05-09T18:23:10.875Z,0.60
2024-05-09T18:25:37.880Z,0.80
2024-05-09T18:28:05.209Z,0.57
2024-05-09T18:30:35.567Z,0.88
2024-05-09T18:33:08.171Z,1.10
2024-05-09T18:35:36.336Z,1.02
2024-05-09T18:38:05.648Z,0.90
2024-05-09T18:40:36.069Z,0.75
2024-05-09T18:43:06.854Z,0.80
2024-05-09T18:45:35.633Z,1.02
2024-05-09T18:48:03.962Z,0.80
2024-05-09T18:50:35.832Z,0.77
2024-05-09T18:53:06.264Z,0.80
2024-05-09T18:55:33.280Z,0.98
2024-05-09T18:58:00.360Z,0.70
2024-05-09T19:00:34.333Z,1.00
2024-05-09T19:03:06.193Z,1.13
2024-05-09T19:05:35.912Z,1.10
2024-05-09T19:08:03.576Z,1.00
2024-05-09T19:10:34.417Z,1.20
2024-05-09T19:13:07.299Z,1.10
2024-05-09T19:15:38.313Z,1.15
2024-05-09T19:18:06.051Z,1.10
2024-05-09T19:20:35.580Z,1.30
2024-05-09T19:23:04.633Z,2.22
2024-05-09T19:25:32.078Z,1.60
2024-05-09T19:28:00.467Z,1.38
2024-05-09T19:30:36.656Z,1.20
2024-05-09T19:33:07.595Z,1.20
2024-05-09T19:35:35.030Z,1.17
2024-05-09T19:38:02.248Z,1.17
2024-05-09T19:40:32.157Z,1.10
2024-05-09T19:43:05.802Z,1.27
2024-05-09T19:45:35.156Z,1.25
2024-05-09T19:48:03.522Z,1.20
2024-05-09T19:50:37.341Z,1.40
2024-05-09T19:53:10.117Z,1.55
2024-05-09T19:55:37.291Z,1.75
2024-05-09T19:58:05.635Z,1.40
2024-05-09T20:00:40.310Z,1.30
2024-05-09T20:03:09.975Z,0.93
2024-05-09T20:05:39.278Z,1.27
2024-05-09T20:08:06.885Z,1.00
2024-05-09T20:10:36.512Z,1.30
2024-05-09T20:13:05.442Z,1.15
2024-05-09T20:15:35.119Z,1.55
2024-05-09T20:18:03.178Z,1.27
2024-05-09T20:20:37.386Z,1.70
2024-05-09T20:23:08.630Z,1.30
2024-05-09T20:25:35.411Z,1.70
2024-05-09T20:28:02.394Z,1.73
2024-05-09T20:30:32.798Z,1.98
2024-05-09T20:33:03.069Z,2.38
2024-05-09T20:35:34.008Z,2.78
2024-05-09T20:38:01.947Z,2.92
2024-05-09T20:40:33.916Z,2.45
2024-05-09T20:43:04.455Z,3.05
2024-05-09T20:45:31.308Z,2.15
2024-05-09T20:47:58.321Z,1.95
2024-05-09T20:50:35.595Z,2.10
2024-05-09T20:53:14.608Z,1.83
2024-05-09T20:55:45.365Z,1.80
2024-05-09T20:58:12.769Z,1.90
2024-05-09T21:00:43.804Z,1.20
2024-05-09T21:03:14.458Z,1.50
2024-05-09T21:05:42.819Z,1.58
2024-05-09T21:08:09.967Z,2.17
2024-05-09T21:10:37.309Z,1.50
2024-05-09T21:13:05.119Z,1.88
2024-05-09T21:15:32.551Z,2.45
2024-05-09T21:17:59.560Z,2.80
2024-05-09T21:20:31.734Z,3.33
2024-05-09T21:23:00.653Z,1.80
2024-05-09T21:25:27.655Z,2.28
2024-05-09T21:27:54.610Z,2.42
2024-05-09T21:30:32.056Z,3.10
2024-05-09T21:33:13.732Z,2.90
2024-05-09T21:35:43.429Z,3.10
2024-05-09T21:38:11.004Z,3.10
2024-05-09T21:40:38.596Z,3.25
2024-05-09T21:43:07.716Z,3.95
2024-05-09T21:45:35.096Z,2.97
2024-05-09T21:48:06.400Z,3.20
2024-05-09T21:50:39.794Z,2.67
2024-05-09T21:53:09.224Z,3.03
2024-05-09T21:55:35.975Z,3.22
2024-05-09T21:58:03.140Z,5.60
2024-05-09T22:00:36.144Z,6.88
2024-05-09T22:03:09.494Z,4.57
2024-05-09T22:05:38.022Z,4.05
2024-05-09T22:08:05.377Z,3.58
2024-05-09T22:10:34.988Z,3.10
2024-05-09T22:13:04.877Z,3.25
2024-05-09T22:15:35.737Z,3.47
2024-05-09T22:18:03.467Z,3.25
2024-05-09T22:20:36.701Z,2.92
2024-05-09T22:23:05.650Z,3.15
2024-05-09T22:25:33.024Z,2.33
2024-05-09T22:28:01.482Z,1.80
2024-05-09T22:30:35.748Z,2.15
2024-05-09T22:33:10.192Z,2.10
2024-05-09T22:35:38.910Z,3.20
2024-05-09T22:38:05.967Z,2.05
2024-05-09T22:40:42.830Z,2.15
2024-05-09T22:43:18.371Z,2.10
2024-05-09T22:45:46.249Z,2.17
2024-05-09T22:48:13.302Z,1.92
2024-05-09T22:50:40.873Z,2.50
2024-05-09T22:53:07.587Z,2.53
2024-05-09T22:55:34.425Z,2.63
2024-05-09T22:58:01.278Z,2.80
2024-05-09T23:00:31.765Z,3.38
2024-05-09T23:03:02.622Z,2.80
2024-05-09T23:05:30.617Z,3.17
2024-05-09T23:07:57.497Z,3.75
2024-05-09T23:10:32.036Z,3.78
2024-05-09T23:13:03.476Z,4.00
2024-05-09T23:15:30.475Z,4.15
2024-05-09T23:17:57.843Z,3.63
2024-05-09T23:22:54.404Z,2.92
2024-05-09T23:25:21.080Z,2.95
2024-05-09T23:27:47.906Z,2.47
2024-05-09T23:30:28.260Z,2.15
2024-05-09T23:33:01.115Z,2.38
2024-05-09T23:35:28.019Z,1.52
2024-05-09T23:37:54.672Z,1.70
2024-05-09T23:40:23.342Z,1.42
2024-05-09T23:42:50.667Z,1.85
2024-05-09T23:45:17.323Z,1.48
2024-05-09T23:47:43.996Z,1.83
2024-05-09T23:50:16.841Z,1.70
2024-05-09T23:52:50.440Z,2.10
2024-05-09T23:55:17.364Z,2.33
2024-05-09T23:57:44.206Z,2.20
